Ontario, CA (91764)

9:40 PM PDT on August 20, 2014 (GMT -0700)
Pennhill Estates | Change Station
CLOSE
Current Station
Personal Weather Station
Location: Upland, CA
Elevation: 1539 ft
Nearby Weather Stations

Elev 1539 ft 34.13 °N, 117.62 °W | Updated 1 minute ago

Partly Cloudy
Partly Cloudy
70.2 °F
Feels Like 74 °F
N
1.0
Wind Variable Wind from NW
Gusts 1.0 mph

Today
High -- | Low -- °F
--% Chance of Precip.
Yesterday
High -- | Low -- °F
Precip. -- in
6:15 AM 7:31 PM
Waning Crescent, 17% visible
Pressure 29.87 in
Visibility 10.0 miles
Clouds Few 10000 ft
Heat Index 74 °F
Dew Point 60 °F
Humidity 69%
Rainfall 0.06 in
Snow Depth Not available.
UV 0 out of 12
Pollen 5.60 out of 12
Ozone Good
PM2.5 Moderate
Flu Activity Not available.
METAR KONT 210353Z 26006KT 10SM FEW100 23/14 A2991 RMK AO2 SLP115 T02280144

More Conditions Fewer Conditions

Pressure 29.87 in
Visibility 10.0 miles
Clouds Few 10000 ft
Heat Index 74 °F
Dew Point 60 °F
Humidity 69%
Rainfall 0.06 in
Snow Depth Not available.
UV 0 out of 12
Pollen 5.60 out of 12
Ozone Good
PM2.5 Moderate
Flu Activity Not available.
METAR KONT 210353Z 26006KT 10SM FEW100 23/14 A2991 RMK AO2 SLP115 T02280144

More Conditions Fewer Conditions

10-Day Weather Forecast

Almanac

Astronomy

Aug. 20, 2014 Rise Set
Actual Time 6:15 AM PDT 7:31 PM PDT
Civil Twilight 5:49 AM PDT 7:57 PM PDT
Nautical Twilight 5:18 AM PDT 8:28 PM PDT
Astronomical Twilight 4:45 AM PDT 9:01 PM PDT
Moon 2:04 AM PDT (8/20) 4:15 PM PDT (8/20)
Length of Visible Light 14h 08m
Length of Day
13h 15m
Tomorrow will be 1m 56s shorter.
Waning Crescent, 17% of the Moon is Illuminated
Aug 21
Waning Crescent
Aug 25
New
Sep 2
First Quarter
Sep 8
Full
Sep 15
Last Quarter

Yesterday's Extremes

State Highs State Lows

Community

WunderPhotos

Upload Photos

1,745,856 photos uploaded!

Nearby

Air Quality

  Air Quality AQ Index Pollutant
Yesterday Good
PM10
Yesterday Good
OZONE
Current Moderate
PM2.5
Current Good
OZONE
Thursday Good
PM10
Thursday Good
OZONE
Thursday Good
CO
Thursday Good
NO2

Snow Depth

Station Depth Elevation
Leavitt Lake 1 in 9400 ft
Leavitt Meadows 1 in 7200 ft
Summit Meadow 0 in 9122 ft
Monitor Pass 0 in 8350 ft
Blue Lakes 0 in 8000 ft

Earthquake Activity

City Distance Mag. Time & Date
Malibu Beach, California 63 miles 3.4 10:03 AM PDT
2014-08-15
Yucca Valley, California 68 miles 3.8 8:57 PM PDT
2014-08-14
Salton City, California 111 miles 2.6 6:58 AM PDT
2014-08-14
Minimum magnitude displayed is 2.5.

Coastal Water Temperatures

Place Temperature
No Stations Reporting

Nearby Weather Stations